createdAt,value
2023-04-07T00:02:47.130Z,13.40
2023-04-07T00:05:50.523Z,13.57
2023-04-07T00:08:53.602Z,13.43
2023-04-07T00:11:56.854Z,12.87
2023-04-07T00:14:59.876Z,12.10
2023-04-07T00:18:04.689Z,11.47
2023-04-07T00:21:08.129Z,10.97
2023-04-07T00:24:14.468Z,11.53
2023-04-07T00:27:23.215Z,11.47
2023-04-07T00:30:26.655Z,11.43
2023-04-07T00:33:31.518Z,10.20
2023-04-07T00:36:34.832Z,10.80
2023-04-07T00:39:38.112Z,12.23
2023-04-07T00:42:41.180Z,10.30
2023-04-07T00:45:44.516Z,9.50
2023-04-07T00:48:49.054Z,11.77
2023-04-07T00:51:52.355Z,11.00
2023-04-07T00:54:55.956Z,10.80
2023-04-07T00:57:59.186Z,10.93
2023-04-07T01:01:13.492Z,9.87
2023-04-07T01:04:28.725Z,10.40
2023-04-07T01:07:59.407Z,9.77
2023-04-07T01:11:09.885Z,10.20
2023-04-07T01:14:16.986Z,9.13
2023-04-07T01:17:26.471Z,9.23
2023-04-07T01:20:34.344Z,10.40
2023-04-07T01:23:53.927Z,10.17
2023-04-07T01:27:07.330Z,9.10
2023-04-07T01:30:14.373Z,10.13
2023-04-07T01:33:19.193Z,10.30
2023-04-07T01:36:23.166Z,9.57
2023-04-07T01:39:28.290Z,10.13
2023-04-07T01:42:32.555Z,10.63
2023-04-07T01:45:38.436Z,10.43
2023-04-07T01:48:41.828Z,11.40
2023-04-07T01:51:50.074Z,11.10
2023-04-07T01:54:54.410Z,11.90
2023-04-07T01:57:57.662Z,12.23
2023-04-07T02:01:02.113Z,11.43
2023-04-07T02:04:12.876Z,11.10
2023-04-07T02:07:21.433Z,10.83
2023-04-07T02:10:29.476Z,10.77
2023-04-07T02:13:36.421Z,10.80
2023-04-07T02:16:42.747Z,10.90
2023-04-07T02:19:47.672Z,11.20
2023-04-07T02:22:51.292Z,11.33
2023-04-07T02:25:58.183Z,11.27
2023-04-07T02:29:02.123Z,10.33
2023-04-07T02:32:07.389Z,11.10
2023-04-07T02:35:11.371Z,10.67
2023-04-07T02:38:14.415Z,11.33
2023-04-07T02:41:17.492Z,10.20
2023-04-07T02:44:20.667Z,10.30
2023-04-07T02:47:25.106Z,11.20
2023-04-07T02:50:29.140Z,10.70
2023-04-07T02:53:32.521Z,10.07
2023-04-07T02:56:36.224Z,10.83
2023-04-07T02:59:39.302Z,10.00
2023-04-07T03:02:45.533Z,10.27
2023-04-07T03:05:49.573Z,10.30
2023-04-07T03:08:52.734Z,10.93
2023-04-07T03:11:56.089Z,10.57
2023-04-07T03:14:59.313Z,10.13
2023-04-07T03:18:04.655Z,10.17
2023-04-07T03:21:08.286Z,10.63
2023-04-07T03:24:12.992Z,10.37
2023-04-07T03:27:17.379Z,10.43
2023-04-07T03:30:23.139Z,10.17
2023-04-07T03:33:27.694Z,9.63
2023-04-07T03:36:32.284Z,9.97
2023-04-07T03:39:41.127Z,10.43
2023-04-07T03:42:58.509Z,9.87
2023-04-07T03:46:01.633Z,10.57
2023-04-07T03:49:06.712Z,9.87
2023-04-07T03:52:09.945Z,9.70
2023-04-07T03:55:13.724Z,10.37
2023-04-07T03:58:17.562Z,10.50
2023-04-07T04:01:23.573Z,10.43
2023-04-07T04:04:28.947Z,10.00
2023-04-07T04:07:33.684Z,10.27
2023-04-07T04:10:41.349Z,9.47
2023-04-07T04:13:45.823Z,10.50
2023-04-07T04:16:49.391Z,10.60
2023-04-07T04:20:12.952Z,9.20
2023-04-07T04:23:21.971Z,10.57
2023-04-07T04:26:29.816Z,11.10
2023-04-07T04:29:37.755Z,11.43
2023-04-07T04:32:42.754Z,9.60
2023-04-07T04:35:48.302Z,10.43
2023-04-07T04:38:54.252Z,11.03
2023-04-07T04:41:58.354Z,10.83
2023-04-07T04:45:09.612Z,10.60
2023-04-07T04:48:14.543Z,10.47
2023-04-07T04:51:19.753Z,10.43
2023-04-07T04:54:27.603Z,10.27
2023-04-07T04:57:30.937Z,10.70
2023-04-07T05:00:36.133Z,11.73
2023-04-07T05:03:43.205Z,10.97
2023-04-07T05:06:56.309Z,9.87
2023-04-07T05:10:03.126Z,9.93
2023-04-07T05:13:09.301Z,10.67
2023-04-07T05:16:15.907Z,10.63
2023-04-07T05:19:19.638Z,10.60
2023-04-07T05:22:24.201Z,9.93
2023-04-07T05:25:28.134Z,10.00
2023-04-07T05:28:35.812Z,11.17
2023-04-07T05:31:43.143Z,10.73
2023-04-07T05:34:49.779Z,11.70
2023-04-07T05:37:54.989Z,11.90
2023-04-07T05:40:58.281Z,11.73
2023-04-07T05:44:07.336Z,12.20
2023-04-07T05:47:14.901Z,11.93
2023-04-07T05:50:19.400Z,12.30
2023-04-07T05:53:25.580Z,11.33
2023-04-07T05:56:28.912Z,12.00
2023-04-07T05:59:32.248Z,12.20
2023-04-07T06:02:36.281Z,11.23
2023-04-07T06:05:43.473Z,12.43
2023-04-07T06:08:49.386Z,11.67
2023-04-07T06:11:52.430Z,12.17
2023-04-07T06:14:57.542Z,10.67
2023-04-07T06:18:00.646Z,11.83
2023-04-07T06:21:04.362Z,11.37
2023-04-07T06:24:10.052Z,12.23
2023-04-07T06:27:13.658Z,12.27
2023-04-07T06:30:17.452Z,12.53
2023-04-07T06:33:25.739Z,11.73
2023-04-07T06:36:29.176Z,12.83
2023-04-07T06:39:34.065Z,11.33
2023-04-07T06:42:37.024Z,12.57
2023-04-07T06:45:51.792Z,12.27
2023-04-07T06:48:54.811Z,12.40
2023-04-07T06:51:57.814Z,12.17
2023-04-07T06:55:02.189Z,13.53
2023-04-07T06:58:05.366Z,11.97
2023-04-07T07:01:12.331Z,13.77
2023-04-07T07:04:15.639Z,13.07
2023-04-07T07:07:18.975Z,12.20
2023-04-07T07:10:23.539Z,12.37
2023-04-07T07:13:28.011Z,11.87
2023-04-07T07:16:30.962Z,11.80
2023-04-07T07:19:33.970Z,12.73
2023-04-07T07:22:37.152Z,11.63
2023-04-07T07:25:42.035Z,12.27
2023-04-07T07:28:45.032Z,11.57
2023-04-07T07:31:48.289Z,12.47
2023-04-07T07:34:51.542Z,11.37
2023-04-07T07:37:54.530Z,10.97
2023-04-07T07:40:58.836Z,11.17
2023-04-07T07:44:01.838Z,10.20
2023-04-07T07:47:04.817Z,10.80
2023-04-07T07:50:08.436Z,10.93
2023-04-07T07:53:13.129Z,9.23
2023-04-07T07:56:17.517Z,9.63
2023-04-07T07:59:23.249Z,9.43
2023-04-07T08:02:31.673Z,9.40
2023-04-07T08:05:34.941Z,9.50
2023-04-07T08:08:37.986Z,9.17
2023-04-07T08:11:42.450Z,9.13
2023-04-07T08:14:46.181Z,9.00
2023-04-07T08:17:49.240Z,8.83
2023-04-07T08:20:52.739Z,9.87
2023-04-07T08:23:56.617Z,9.60
2023-04-07T08:27:01.482Z,9.33
2023-04-07T08:30:07.381Z,8.73
2023-04-07T08:33:10.676Z,10.03
2023-04-07T08:36:13.782Z,10.53
2023-04-07T08:39:16.841Z,9.77
2023-04-07T08:42:29.755Z,8.67
2023-04-07T08:45:34.140Z,8.77
2023-04-07T08:48:40.203Z,7.73
2023-04-07T08:51:48.339Z,8.03
2023-04-07T08:54:53.300Z,7.30
2023-04-07T08:58:00.705Z,6.93
2023-04-07T09:01:06.885Z,7.23
2023-04-07T09:04:13.482Z,6.67
2023-04-07T09:07:16.608Z,7.30
2023-04-07T09:10:19.660Z,6.77
2023-04-07T09:13:25.652Z,7.20
2023-04-07T09:16:31.123Z,6.77
2023-04-07T09:19:34.850Z,6.23
2023-04-07T09:22:42.292Z,6.90
2023-04-07T09:25:45.975Z,6.83
2023-04-07T09:28:53.821Z,6.30
2023-04-07T09:31:57.733Z,7.13
2023-04-07T09:35:01.107Z,7.60
2023-04-07T09:38:06.357Z,7.60
2023-04-07T09:41:11.935Z,6.93
2023-04-07T09:44:16.496Z,7.43
2023-04-07T09:47:19.550Z,6.43
2023-04-07T09:50:35.154Z,6.63
2023-04-07T09:53:52.689Z,7.20
2023-04-07T09:56:57.705Z,6.43
2023-04-07T10:00:02.536Z,6.50
2023-04-07T10:03:19.962Z,6.73
2023-04-07T10:06:23.361Z,6.43
2023-04-07T10:09:29.218Z,7.53
2023-04-07T10:12:34.939Z,7.23
2023-04-07T10:15:39.254Z,6.37
2023-04-07T10:18:42.878Z,6.27
2023-04-07T10:21:46.811Z,6.70
2023-04-07T10:24:57.639Z,6.17
2023-04-07T10:28:06.231Z,6.97
2023-04-07T10:31:12.078Z,6.83
2023-04-07T10:34:15.141Z,7.03
2023-04-07T10:37:22.139Z,7.73
2023-04-07T10:40:34.797Z,6.93
2023-04-07T10:43:40.840Z,7.63
2023-04-07T10:47:07.654Z,7.07
2023-04-07T10:50:19.923Z,7.70
2023-04-07T10:53:24.192Z,7.33
2023-04-07T10:56:28.043Z,5.93
2023-04-07T10:59:31.439Z,6.00
2023-04-07T11:02:36.780Z,7.10
2023-04-07T11:05:40.397Z,7.77
2023-04-07T11:08:46.826Z,7.63
2023-04-07T11:11:52.469Z,8.80
2023-04-07T11:14:56.536Z,8.63
2023-04-07T11:18:14.083Z,8.70
2023-04-07T11:21:20.349Z,9.50
2023-04-07T11:24:37.737Z,10.40
2023-04-07T11:27:40.720Z,10.13
2023-04-07T11:30:51.534Z,11.47
2023-04-07T11:33:59.283Z,14.23
2023-04-07T11:37:21.066Z,17.60
2023-04-07T11:40:35.461Z,19.90
2023-04-07T11:43:41.698Z,20.33
2023-04-07T11:46:55.482Z,22.63
2023-04-07T11:49:59.922Z,22.37
2023-04-07T11:53:02.962Z,20.90
2023-04-07T11:56:09.986Z,20.43
2023-04-07T11:59:24.347Z,16.90
2023-04-07T12:02:35.019Z,14.63
2023-04-07T12:05:45.876Z,15.10
2023-04-07T12:08:48.940Z,15.80
2023-04-07T12:11:52.025Z,15.83
2023-04-07T12:14:55.703Z,13.83
2023-04-07T12:17:58.813Z,13.67
2023-04-07T12:21:03.453Z,15.43
2023-04-07T12:24:06.627Z,14.77
2023-04-07T12:27:09.885Z,14.87
2023-04-07T12:30:14.065Z,14.70
2023-04-07T12:33:17.089Z,17.07
2023-04-07T12:36:21.436Z,19.43
2023-04-07T12:39:24.433Z,18.43
2023-04-07T12:42:27.924Z,20.00
2023-04-07T12:45:31.519Z,20.43
2023-04-07T12:48:34.590Z,17.70
2023-04-07T12:51:40.020Z,16.53
2023-04-07T12:54:44.435Z,17.07
2023-04-07T12:57:47.463Z,13.10
2023-04-07T13:00:50.620Z,13.57
2023-04-07T13:03:54.449Z,10.97
2023-04-07T13:06:59.581Z,9.50
2023-04-07T13:10:02.678Z,9.80
2023-04-07T13:13:06.041Z,8.60
2023-04-07T13:16:09.352Z,8.70
2023-04-07T13:19:12.373Z,9.53
2023-04-07T13:22:21.253Z,8.20
2023-04-07T13:25:24.999Z,7.40
2023-04-07T13:28:27.991Z,8.23
2023-04-07T13:31:31.544Z,8.37
2023-04-07T13:34:34.953Z,9.87
2023-04-07T13:37:39.318Z,7.77
2023-04-07T13:40:42.828Z,8.37
2023-04-07T13:43:45.978Z,8.53
2023-04-07T13:46:49.502Z,9.10
2023-04-07T13:49:52.866Z,8.87
2023-04-07T13:52:57.181Z,9.07
2023-04-07T13:56:00.310Z,8.43
2023-04-07T13:59:03.443Z,8.07
2023-04-07T14:02:06.503Z,9.80
2023-04-07T14:05:10.439Z,9.57
2023-04-07T14:08:14.911Z,10.03
2023-04-07T14:11:18.684Z,9.40
2023-04-07T14:14:21.686Z,8.90
2023-04-07T14:17:24.902Z,8.50
2023-04-07T14:20:28.105Z,8.03
2023-04-07T14:23:37.236Z,8.10
2023-04-07T14:26:40.999Z,8.07
2023-04-07T14:29:43.961Z,8.43
2023-04-07T14:32:47.197Z,8.27
2023-04-07T14:35:50.606Z,8.27
2023-04-07T14:38:55.467Z,8.53
2023-04-07T14:41:58.616Z,8.47
2023-04-07T14:45:03.122Z,7.47
2023-04-07T14:48:07.763Z,7.80
2023-04-07T14:51:14.528Z,7.90
2023-04-07T14:54:19.159Z,7.70
2023-04-07T14:57:22.440Z,8.40
2023-04-07T15:00:26.118Z,7.53
2023-04-07T15:03:29.434Z,7.20
2023-04-07T15:06:32.941Z,8.67
2023-04-07T15:09:37.250Z,17.33
2023-04-07T15:12:40.276Z,10.80
2023-04-07T15:15:43.317Z,8.90
2023-04-07T15:18:47.292Z,18.53
2023-04-07T15:21:50.438Z,9.00
2023-04-07T15:24:54.754Z,10.90
2023-04-07T15:27:57.834Z,12.57
2023-04-07T15:31:01.725Z,8.47
2023-04-07T15:34:05.352Z,10.27
2023-04-07T15:37:08.454Z,8.27
2023-04-07T15:40:13.388Z,9.03
2023-04-07T15:43:16.377Z,9.57
2023-04-07T15:46:19.359Z,11.57
2023-04-07T15:49:24.920Z,23.67
2023-04-07T15:52:29.230Z,11.50
2023-04-07T15:55:34.269Z,9.90
2023-04-07T15:58:37.482Z,10.40
2023-04-07T16:01:40.566Z,11.87
2023-04-07T16:04:44.615Z,10.87
2023-04-07T16:07:47.872Z,10.17
2023-04-07T16:10:52.262Z,10.73
2023-04-07T16:13:55.408Z,9.73
2023-04-07T16:16:59.475Z,10.07
2023-04-07T16:20:03.863Z,9.80
2023-04-07T16:23:06.968Z,16.30
2023-04-07T16:26:11.302Z,11.27
2023-04-07T16:29:14.333Z,16.87
2023-04-07T16:32:17.368Z,15.70
2023-04-07T16:35:20.602Z,36.50
2023-04-07T16:38:24.090Z,13.90
2023-04-07T16:41:28.474Z,27.13
2023-04-07T16:44:32.791Z,10.23
2023-04-07T16:47:36.176Z,9.97
2023-04-07T16:50:42.966Z,9.73
2023-04-07T16:53:46.620Z,11.33
2023-04-07T16:56:51.410Z,11.57
2023-04-07T16:59:54.410Z,11.87
2023-04-07T17:02:57.580Z,11.30
2023-04-07T17:06:05.254Z,10.73
2023-04-07T17:09:12.039Z,10.63
2023-04-07T17:12:16.477Z,11.03
2023-04-07T17:15:20.697Z,10.80
2023-04-07T17:18:23.928Z,9.67
2023-04-07T17:21:27.066Z,11.90
2023-04-07T17:24:30.047Z,10.80
2023-04-07T17:27:35.343Z,18.77
2023-04-07T17:30:38.669Z,20.00
2023-04-07T17:33:44.347Z,12.33
2023-04-07T17:36:47.557Z,12.47
2023-04-07T17:39:50.579Z,10.57
2023-04-07T17:42:56.009Z,23.20
2023-04-07T17:45:59.126Z,10.63
2023-04-07T17:49:02.219Z,10.10
2023-04-07T17:52:05.545Z,10.57
2023-04-07T17:55:10.074Z,11.97
2023-04-07T17:58:14.582Z,13.10
2023-04-07T18:01:17.881Z,9.33
2023-04-07T18:04:21.127Z,9.70
2023-04-07T18:07:24.216Z,8.87
2023-04-07T18:10:27.989Z,9.10
2023-04-07T18:13:32.933Z,10.27
2023-04-07T18:16:36.505Z,9.63
2023-04-07T18:19:39.605Z,8.93
2023-04-07T18:22:42.571Z,9.73
2023-04-07T18:25:45.935Z,8.97
2023-04-07T18:28:50.429Z,9.83
2023-04-07T18:31:53.663Z,9.70
2023-04-07T18:34:56.950Z,8.13
2023-04-07T18:37:59.945Z,8.17
2023-04-07T18:41:04.252Z,8.90
2023-04-07T18:44:08.675Z,8.80
2023-04-07T18:47:11.696Z,8.07
2023-04-07T18:50:14.707Z,7.77
2023-04-07T18:53:17.729Z,8.13
2023-04-07T18:56:22.041Z,7.27
2023-04-07T18:59:27.537Z,7.30
2023-04-07T19:02:30.825Z,7.50
2023-04-07T19:05:34.396Z,8.07
2023-04-07T19:08:37.613Z,7.37
2023-04-07T19:11:41.895Z,7.73
2023-04-07T19:14:46.447Z,8.73
2023-04-07T19:17:49.583Z,8.53
2023-04-07T19:20:52.685Z,14.50
2023-04-07T19:23:56.704Z,8.73
2023-04-07T19:27:03.283Z,7.97
2023-04-07T19:30:09.679Z,7.77
2023-04-07T19:33:12.749Z,7.70
2023-04-07T19:36:15.862Z,7.57
2023-04-07T19:39:18.887Z,7.60
2023-04-07T19:42:21.883Z,8.70
2023-04-07T19:45:26.869Z,9.07
2023-04-07T19:48:30.613Z,7.97
2023-04-07T19:51:35.287Z,9.23
2023-04-07T19:54:38.382Z,10.20
2023-04-07T19:57:41.436Z,9.60
2023-04-07T20:00:49.583Z,11.90
2023-04-07T20:03:52.947Z,10.80
2023-04-07T20:06:56.023Z,13.67
2023-04-07T20:09:59.913Z,12.43
2023-04-07T20:13:04.120Z,11.90
2023-04-07T20:16:10.776Z,10.37
2023-04-07T20:19:13.850Z,12.67
2023-04-07T20:22:16.957Z,11.67
2023-04-07T20:25:20.303Z,13.80
2023-04-07T20:28:23.661Z,12.87
2023-04-07T20:31:28.135Z,11.70
2023-04-07T20:34:31.460Z,11.10
2023-04-07T20:37:34.479Z,13.17
2023-04-07T20:40:38.284Z,12.77
2023-04-07T20:43:41.700Z,13.03
2023-04-07T20:46:47.268Z,15.93
2023-04-07T20:49:50.218Z,13.37
2023-04-07T20:52:53.846Z,13.27
2023-04-07T20:55:58.967Z,15.13
2023-04-07T20:59:01.959Z,14.53
2023-04-07T21:02:06.644Z,12.43
2023-04-07T21:05:10.503Z,21.07
2023-04-07T21:08:14.589Z,14.13
2023-04-07T21:11:17.947Z,12.90
2023-04-07T21:14:21.271Z,14.13
2023-04-07T21:17:25.653Z,17.43
2023-04-07T21:20:28.598Z,15.20
2023-04-07T21:23:31.978Z,14.03
2023-04-07T21:26:35.274Z,15.80
2023-04-07T21:29:40.267Z,17.87
2023-04-07T21:32:46.380Z,16.30
2023-04-07T21:35:49.793Z,14.70
2023-04-07T21:38:53.118Z,15.37
2023-04-07T21:41:57.225Z,15.57
2023-04-07T21:45:00.264Z,17.27
2023-04-07T21:48:05.326Z,17.47
2023-04-07T21:51:08.389Z,18.27
2023-04-07T21:54:12.378Z,16.63
2023-04-07T21:57:15.650Z,16.10
2023-04-07T22:00:19.188Z,16.73
2023-04-07T22:03:23.921Z,16.80
2023-04-07T22:06:27.636Z,16.37
2023-04-07T22:09:30.800Z,16.77
2023-04-07T22:12:33.839Z,16.43
2023-04-07T22:15:36.797Z,15.07
2023-04-07T22:18:41.405Z,17.50
2023-04-07T22:21:44.596Z,16.47
2023-04-07T22:24:47.537Z,16.57
2023-04-07T22:27:52.279Z,17.37
2023-04-07T22:30:55.883Z,17.00
2023-04-07T22:34:00.321Z,15.27
2023-04-07T22:37:03.610Z,17.90
2023-04-07T22:40:08.729Z,15.77
2023-04-07T22:43:12.224Z,17.17
2023-04-07T22:46:17.684Z,15.77
2023-04-07T22:49:22.310Z,15.30
2023-04-07T22:52:25.481Z,15.90
2023-04-07T22:55:29.579Z,16.40
2023-04-07T22:58:32.615Z,15.67
2023-04-07T23:01:35.718Z,15.80
2023-04-07T23:04:40.035Z,15.40
2023-04-07T23:07:43.136Z,14.87
2023-04-07T23:10:46.128Z,14.20
2023-04-07T23:13:49.257Z,14.73
2023-04-07T23:16:54.450Z,16.40
2023-04-07T23:19:59.117Z,17.67
2023-04-07T23:23:02.115Z,16.57
2023-04-07T23:26:06.596Z,15.60
2023-04-07T23:29:09.588Z,16.63
2023-04-07T23:32:13.044Z,15.60
2023-04-07T23:35:17.572Z,16.03
2023-04-07T23:38:20.896Z,16.10
2023-04-07T23:41:23.976Z,16.43
2023-04-07T23:44:26.964Z,18.00
2023-04-07T23:47:30.041Z,17.77
2023-04-07T23:50:34.747Z,19.10
2023-04-07T23:53:37.918Z,17.90
2023-04-07T23:56:41.346Z,19.77
2023-04-07T23:59:44.975Z,20.43
